AAL2683 KDFW-KRDU
Flight info
| Callsign | AAL2683 |
|---|---|
| Flight time | N/A |
| Altitude | 37000 |
| Route | TRYTN4 LOOSE MEM VXV KPASS ALDAN4 |
| Aircraft | A321/M-SDE3FGHIRWY/LB1 |
Departure
| Time | 2026-05-01 15:18 |
|---|---|
| Airport | Dallas Fort Worth International Airport (KDFW) |
Arrival
| Time | N/A |
|---|---|
| Airport | Raleigh-Durham International Airport (KRDU) |
| Time | Latitude | Longitude | Altitude | Speed | Heading |
|---|---|---|---|---|---|
| 2026-05-01 14:03 | 32.90527 | -97.04594 | 601 ft | 0 kts | 122° |
| 2026-05-01 14:59 | 32.90528 | -97.04596 | 601 ft | 2 kts | 122° |
| 2026-05-01 14:59 | 32.90531 | -97.04604 | 601 ft | 4 kts | 126° |
| 2026-05-01 14:59 | 32.90548 | -97.04622 | 601 ft | 4 kts | 165° |
| 2026-05-01 14:59 | 32.90571 | -97.04623 | 601 ft | 4 kts | 193° |
| 2026-05-01 15:00 | 32.90581 | -97.04621 | 601 ft | 0 kts | 195° |
| 2026-05-01 15:05 | 32.90580 | -97.04621 | 601 ft | 0 kts | 195° |
| 2026-05-01 15:05 | 32.90541 | -97.04651 | 601 ft | 15 kts | 220° |
| 2026-05-01 15:06 | 32.90472 | -97.04743 | 601 ft | 15 kts | 215° |
| 2026-05-01 15:06 | 32.90374 | -97.04763 | 601 ft | 14 kts | 180° |
| 2026-05-01 15:06 | 32.90274 | -97.04763 | 601 ft | 15 kts | 180° |
| 2026-05-01 15:06 | 32.90165 | -97.04766 | 601 ft | 17 kts | 181° |
| 2026-05-01 15:07 | 32.90046 | -97.04766 | 601 ft | 17 kts | 180° |
| 2026-05-01 15:07 | 32.89926 | -97.04766 | 601 ft | 17 kts | 180° |
| 2026-05-01 15:07 | 32.89805 | -97.04766 | 601 ft | 18 kts | 180° |
| 2026-05-01 15:07 | 32.89673 | -97.04768 | 601 ft | 20 kts | 180° |
| 2026-05-01 15:08 | 32.89536 | -97.04767 | 601 ft | 20 kts | 180° |
| 2026-05-01 15:08 | 32.89394 | -97.04768 | 601 ft | 20 kts | 180° |
| 2026-05-01 15:08 | 32.89259 | -97.04768 | 601 ft | 14 kts | 180° |
| 2026-05-01 15:08 | 32.89209 | -97.04774 | 601 ft | 9 kts | 200° |
| 2026-05-01 15:09 | 32.89183 | -97.04836 | 601 ft | 9 kts | 265° |
| 2026-05-01 15:09 | 32.89171 | -97.04885 | 601 ft | 3 kts | 208° |
| 2026-05-01 15:09 | 32.89114 | -97.04891 | 601 ft | 12 kts | 180° |
| 2026-05-01 15:09 | 32.89019 | -97.04892 | 601 ft | 15 kts | 180° |
| 2026-05-01 15:10 | 32.88912 | -97.04893 | 601 ft | 16 kts | 180° |
| 2026-05-01 15:10 | 32.88691 | -97.04894 | 601 ft | 16 kts | 180° |
| 2026-05-01 15:10 | 32.88579 | -97.04894 | 601 ft | 16 kts | 180° |
| 2026-05-01 15:11 | 32.88465 | -97.04895 | 601 ft | 17 kts | 180° |
| 2026-05-01 15:11 | 32.88231 | -97.04896 | 601 ft | 17 kts | 180° |
| 2026-05-01 15:11 | 32.88111 | -97.04897 | 601 ft | 17 kts | 181° |
| 2026-05-01 15:12 | 32.87991 | -97.04898 | 601 ft | 17 kts | 180° |
| 2026-05-01 15:12 | 32.87908 | -97.04939 | 601 ft | 6 kts | 273° |
| 2026-05-01 15:12 | 32.87909 | -97.04962 | 601 ft | 0 kts | 271° |
| 2026-05-01 15:14 | 32.87909 | -97.04975 | 601 ft | 7 kts | 271° |
| 2026-05-01 15:14 | 32.87911 | -97.05072 | 601 ft | 1 kts | 294° |
| 2026-05-01 15:15 | 32.87934 | -97.05087 | 601 ft | 3 kts | 347° |
| 2026-05-01 15:15 | 32.87945 | -97.05089 | 601 ft | 0 kts | 353° |
| 2026-05-01 15:16 | 32.88120 | -97.05112 | 601 ft | 9 kts | 353° |
| 2026-05-01 15:16 | 32.88133 | -97.05110 | 601 ft | 7 kts | 13° |
| 2026-05-01 15:17 | 32.89019 | -97.05073 | 601 ft | 128 kts | 359° |
| 2026-05-01 15:18 | 32.92598 | -97.04899 | 1867 ft | 173 kts | 14° |
| 2026-05-01 15:18 | 32.93798 | -97.04662 | 2526 ft | 183 kts | 17° |
| 2026-05-01 15:19 | 32.98100 | -97.03919 | 4782 ft | 220 kts | 14° |
| 2026-05-01 15:19 | 33.01211 | -97.03455 | 6505 ft | 231 kts | 12° |
| 2026-05-01 15:19 | 33.02829 | -97.03217 | 7281 ft | 237 kts | 11° |
| 2026-05-01 15:20 | 33.06139 | -97.02540 | 8885 ft | 243 kts | 26° |
| 2026-05-01 15:20 | 33.07448 | -97.01323 | 9588 ft | 245 kts | 56° |
| 2026-05-01 15:20 | 33.08042 | -96.99405 | 9954 ft | 254 kts | 80° |
| 2026-05-01 15:21 | 33.08210 | -96.97290 | 10199 ft | 259 kts | 85° |
| 2026-05-01 15:21 | 33.08300 | -96.95133 | 10463 ft | 263 kts | 86° |
| 2026-05-01 15:21 | 33.08228 | -96.92940 | 10715 ft | 267 kts | 95° |
| 2026-05-01 15:21 | 33.07944 | -96.90718 | 11147 ft | 273 kts | 99° |
| 2026-05-01 15:22 | 33.07284 | -96.86170 | 12563 ft | 284 kts | 99° |
| 2026-05-01 15:22 | 33.06937 | -96.83824 | 13248 ft | 290 kts | 102° |
| 2026-05-01 15:22 | 33.06339 | -96.81500 | 13939 ft | 296 kts | 111° |
| 2026-05-01 15:23 | 33.05583 | -96.79224 | 14524 ft | 302 kts | 114° |
| 2026-05-01 15:23 | 33.04771 | -96.76885 | 15124 ft | 308 kts | 114° |
| 2026-05-01 15:23 | 33.03942 | -96.74501 | 15730 ft | 314 kts | 115° |
| 2026-05-01 15:23 | 33.03102 | -96.72076 | 16341 ft | 319 kts | 115° |
| 2026-05-01 15:24 | 33.02249 | -96.69608 | 16934 ft | 325 kts | 116° |
| 2026-05-01 15:24 | 33.01381 | -96.67091 | 17535 ft | 331 kts | 116° |
| 2026-05-01 15:24 | 33.00499 | -96.64534 | 18119 ft | 336 kts | 117° |
| 2026-05-01 15:24 | 32.99601 | -96.61930 | 18656 ft | 341 kts | 117° |
| 2026-05-01 15:25 | 32.98705 | -96.59332 | 19192 ft | 345 kts | 118° |
| 2026-05-01 15:25 | 32.97791 | -96.56681 | 19707 ft | 348 kts | 119° |
| 2026-05-01 15:25 | 32.96863 | -96.53993 | 20255 ft | 352 kts | 120° |
| 2026-05-01 15:25 | 32.95925 | -96.51279 | 20817 ft | 355 kts | 120° |
| 2026-05-01 15:26 | 32.94977 | -96.48541 | 21371 ft | 358 kts | 121° |
| 2026-05-01 15:26 | 32.94023 | -96.45785 | 21928 ft | 362 kts | 122° |
| 2026-05-01 15:26 | 32.93062 | -96.42986 | 22448 ft | 368 kts | 119° |
| 2026-05-01 15:26 | 32.92461 | -96.39993 | 22949 ft | 387 kts | 101° |
| 2026-05-01 15:27 | 32.92656 | -96.36740 | 23398 ft | 402 kts | 82° |
| 2026-05-01 15:27 | 32.93349 | -96.33476 | 23825 ft | 410 kts | 77° |
| 2026-05-01 15:27 | 32.94157 | -96.30206 | 24219 ft | 414 kts | 77° |
| 2026-05-01 15:28 | 32.95826 | -96.23600 | 25058 ft | 419 kts | 77° |
| 2026-05-01 15:28 | 32.96665 | -96.20265 | 25461 ft | 421 kts | 77° |
| 2026-05-01 15:28 | 32.97506 | -96.16906 | 25845 ft | 424 kts | 77° |
| 2026-05-01 15:29 | 32.99189 | -96.10155 | 26573 ft | 430 kts | 78° |
| 2026-05-01 15:29 | 33.00045 | -96.06717 | 26907 ft | 434 kts | 78° |
| 2026-05-01 15:29 | 33.01780 | -95.99720 | 27518 ft | 443 kts | 78° |
| 2026-05-01 15:30 | 33.03532 | -95.92640 | 28135 ft | 450 kts | 78° |
| 2026-05-01 15:31 | 33.07468 | -95.78250 | 29410 ft | 464 kts | 73° |
| 2026-05-01 15:31 | 33.09809 | -95.71028 | 29982 ft | 470 kts | 74° |
| 2026-05-01 15:32 | 33.12158 | -95.63716 | 30324 ft | 479 kts | 74° |
| 2026-05-01 15:32 | 33.14544 | -95.56258 | 30894 ft | 482 kts | 74° |
| 2026-05-01 15:33 | 33.18135 | -95.44980 | 31592 ft | 487 kts | 74° |
| 2026-05-01 15:34 | 33.21738 | -95.33620 | 32235 ft | 491 kts | 75° |